sensor_id;sensor_type;location;lat;lon;timestamp;P1;durP1;ratioP1;P2;durP2;ratioP2
23658;SDS011;12006;42.666;23.326;2024-03-02T00:00:50;16.27;;;10.07;;
23658;SDS011;12006;42.666;23.326;2024-03-02T00:04:14;15.63;;;9.67;;
23658;SDS011;12006;42.666;23.326;2024-03-02T00:07:43;16.87;;;10.47;;
23658;SDS011;12006;42.666;23.326;2024-03-02T00:11:07;16.33;;;9.83;;
23658;SDS011;12006;42.666;23.326;2024-03-02T00:14:31;14.87;;;10.33;;
23658;SDS011;12006;42.666;23.326;2024-03-02T00:17:55;17.00;;;9.73;;
23658;SDS011;12006;42.666;23.326;2024-03-02T00:21:19;18.37;;;11.60;;
23658;SDS011;12006;42.666;23.326;2024-03-02T00:24:43;19.33;;;10.53;;
23658;SDS011;12006;42.666;23.326;2024-03-02T00:28:21;16.73;;;9.87;;
23658;SDS011;12006;42.666;23.326;2024-03-02T00:31:46;18.13;;;10.87;;
23658;SDS011;12006;42.666;23.326;2024-03-02T00:35:10;15.87;;;10.57;;
23658;SDS011;12006;42.666;23.326;2024-03-02T00:38:39;19.90;;;11.17;;
23658;SDS011;12006;42.666;23.326;2024-03-02T00:42:04;19.50;;;11.07;;
23658;SDS011;12006;42.666;23.326;2024-03-02T00:45:29;17.50;;;10.63;;
23658;SDS011;12006;42.666;23.326;2024-03-02T00:49:01;18.37;;;11.67;;
23658;SDS011;12006;42.666;23.326;2024-03-02T00:52:26;14.63;;;10.43;;
23658;SDS011;12006;42.666;23.326;2024-03-02T00:55:51;17.53;;;10.60;;
23658;SDS011;12006;42.666;23.326;2024-03-02T00:59:15;17.67;;;11.37;;
23658;SDS011;12006;42.666;23.326;2024-03-02T01:02:40;16.80;;;10.17;;
23658;SDS011;12006;42.666;23.326;2024-03-02T01:06:04;15.40;;;10.80;;
23658;SDS011;12006;42.666;23.326;2024-03-02T01:09:28;15.67;;;10.63;;
23658;SDS011;12006;42.666;23.326;2024-03-02T01:12:54;15.83;;;10.33;;
23658;SDS011;12006;42.666;23.326;2024-03-02T01:16:18;18.93;;;10.47;;
23658;SDS011;12006;42.666;23.326;2024-03-02T01:19:41;18.27;;;10.77;;
23658;SDS011;12006;42.666;23.326;2024-03-02T01:23:05;16.90;;;9.70;;
23658;SDS011;12006;42.666;23.326;2024-03-02T01:26:29;12.87;;;9.27;;
23658;SDS011;12006;42.666;23.326;2024-03-02T01:29:53;12.67;;;8.10;;
23658;SDS011;12006;42.666;23.326;2024-03-02T01:33:17;12.43;;;8.93;;
23658;SDS011;12006;42.666;23.326;2024-03-02T01:36:41;14.83;;;9.03;;
23658;SDS011;12006;42.666;23.326;2024-03-02T01:40:06;15.87;;;10.00;;
23658;SDS011;12006;42.666;23.326;2024-03-02T01:43:30;17.53;;;10.83;;
23658;SDS011;12006;42.666;23.326;2024-03-02T01:46:54;14.73;;;9.23;;
23658;SDS011;12006;42.666;23.326;2024-03-02T01:50:24;15.23;;;9.47;;
23658;SDS011;12006;42.666;23.326;2024-03-02T01:53:48;12.93;;;9.43;;
23658;SDS011;12006;42.666;23.326;2024-03-02T01:57:12;15.00;;;8.80;;
23658;SDS011;12006;42.666;23.326;2024-03-02T02:00:36;15.77;;;9.13;;
23658;SDS011;12006;42.666;23.326;2024-03-02T02:04:00;14.43;;;9.43;;
23658;SDS011;12006;42.666;23.326;2024-03-02T02:07:24;14.53;;;9.67;;
23658;SDS011;12006;42.666;23.326;2024-03-02T02:10:48;15.43;;;9.30;;
23658;SDS011;12006;42.666;23.326;2024-03-02T02:14:12;17.27;;;10.63;;
23658;SDS011;12006;42.666;23.326;2024-03-02T02:17:48;16.87;;;11.53;;
23658;SDS011;12006;42.666;23.326;2024-03-02T02:21:12;20.77;;;12.03;;
23658;SDS011;12006;42.666;23.326;2024-03-02T02:24:40;21.73;;;12.30;;
23658;SDS011;12006;42.666;23.326;2024-03-02T02:28:04;18.43;;;12.13;;
23658;SDS011;12006;42.666;23.326;2024-03-02T02:31:36;20.47;;;12.43;;
23658;SDS011;12006;42.666;23.326;2024-03-02T02:35:00;18.63;;;11.47;;
23658;SDS011;12006;42.666;23.326;2024-03-02T02:38:24;18.60;;;11.17;;
23658;SDS011;12006;42.666;23.326;2024-03-02T02:41:48;19.13;;;11.10;;
23658;SDS011;12006;42.666;23.326;2024-03-02T02:45:12;17.50;;;11.30;;
23658;SDS011;12006;42.666;23.326;2024-03-02T02:48:36;20.67;;;11.40;;
23658;SDS011;12006;42.666;23.326;2024-03-02T02:51:59;21.73;;;11.33;;
23658;SDS011;12006;42.666;23.326;2024-03-02T02:55:23;20.03;;;12.23;;
23658;SDS011;12006;42.666;23.326;2024-03-02T02:58:47;19.97;;;11.40;;
23658;SDS011;12006;42.666;23.326;2024-03-02T03:02:11;21.03;;;12.37;;
23658;SDS011;12006;42.666;23.326;2024-03-02T03:05:35;20.10;;;12.37;;
23658;SDS011;12006;42.666;23.326;2024-03-02T03:08:59;18.30;;;11.97;;
23658;SDS011;12006;42.666;23.326;2024-03-02T03:12:23;23.57;;;13.17;;
23658;SDS011;12006;42.666;23.326;2024-03-02T03:15:47;18.33;;;11.73;;
23658;SDS011;12006;42.666;23.326;2024-03-02T03:19:13;22.90;;;12.97;;
23658;SDS011;12006;42.666;23.326;2024-03-02T03:22:40;20.80;;;12.13;;
23658;SDS011;12006;42.666;23.326;2024-03-02T03:26:04;20.77;;;13.47;;
23658;SDS011;12006;42.666;23.326;2024-03-02T03:29:28;21.67;;;13.40;;
23658;SDS011;12006;42.666;23.326;2024-03-02T03:32:52;20.63;;;13.13;;
23658;SDS011;12006;42.666;23.326;2024-03-02T03:36:16;22.60;;;12.17;;
23658;SDS011;12006;42.666;23.326;2024-03-02T03:39:40;21.93;;;12.63;;
23658;SDS011;12006;42.666;23.326;2024-03-02T03:43:04;20.60;;;13.37;;
23658;SDS011;12006;42.666;23.326;2024-03-02T03:46:28;22.23;;;13.50;;
23658;SDS011;12006;42.666;23.326;2024-03-02T03:49:52;23.03;;;12.73;;
23658;SDS011;12006;42.666;23.326;2024-03-02T03:53:16;24.40;;;13.77;;
23658;SDS011;12006;42.666;23.326;2024-03-02T03:56:40;23.37;;;14.43;;
23658;SDS011;12006;42.666;23.326;2024-03-02T04:00:04;23.57;;;13.90;;
23658;SDS011;12006;42.666;23.326;2024-03-02T04:03:28;20.47;;;12.87;;
23658;SDS011;12006;42.666;23.326;2024-03-02T04:06:52;20.53;;;13.57;;
23658;SDS011;12006;42.666;23.326;2024-03-02T04:10:16;22.73;;;14.07;;
23658;SDS011;12006;42.666;23.326;2024-03-02T04:13:40;26.00;;;13.43;;
23658;SDS011;12006;42.666;23.326;2024-03-02T04:17:04;23.37;;;13.37;;
23658;SDS011;12006;42.666;23.326;2024-03-02T04:20:28;22.30;;;13.00;;
23658;SDS011;12006;42.666;23.326;2024-03-02T04:23:52;22.57;;;13.10;;
23658;SDS011;12006;42.666;23.326;2024-03-02T04:27:16;27.13;;;15.03;;
23658;SDS011;12006;42.666;23.326;2024-03-02T04:30:40;30.23;;;17.20;;
23658;SDS011;12006;42.666;23.326;2024-03-02T04:34:04;30.13;;;16.43;;
23658;SDS011;12006;42.666;23.326;2024-03-02T04:37:28;25.23;;;14.50;;
23658;SDS011;12006;42.666;23.326;2024-03-02T04:40:51;24.33;;;15.73;;
23658;SDS011;12006;42.666;23.326;2024-03-02T04:44:15;25.03;;;15.60;;
23658;SDS011;12006;42.666;23.326;2024-03-02T04:47:39;25.63;;;14.77;;
23658;SDS011;12006;42.666;23.326;2024-03-02T04:51:03;29.30;;;16.93;;
23658;SDS011;12006;42.666;23.326;2024-03-02T04:54:27;26.10;;;15.60;;
23658;SDS011;12006;42.666;23.326;2024-03-02T04:57:54;30.43;;;16.40;;
23658;SDS011;12006;42.666;23.326;2024-03-02T05:01:18;28.97;;;16.77;;
23658;SDS011;12006;42.666;23.326;2024-03-02T05:04:42;31.43;;;18.03;;
23658;SDS011;12006;42.666;23.326;2024-03-02T05:08:05;31.53;;;17.67;;
23658;SDS011;12006;42.666;23.326;2024-03-02T05:11:29;31.87;;;16.90;;
23658;SDS011;12006;42.666;23.326;2024-03-02T05:15:06;31.43;;;18.17;;
23658;SDS011;12006;42.666;23.326;2024-03-02T05:18:30;34.40;;;17.87;;
23658;SDS011;12006;42.666;23.326;2024-03-02T05:21:53;32.17;;;17.37;;
23658;SDS011;12006;42.666;23.326;2024-03-02T05:25:17;27.97;;;17.50;;
23658;SDS011;12006;42.666;23.326;2024-03-02T05:28:41;33.67;;;18.17;;
23658;SDS011;12006;42.666;23.326;2024-03-02T05:32:05;31.90;;;17.87;;
23658;SDS011;12006;42.666;23.326;2024-03-02T05:35:29;34.00;;;19.13;;
23658;SDS011;12006;42.666;23.326;2024-03-02T05:38:53;33.20;;;20.13;;
23658;SDS011;12006;42.666;23.326;2024-03-02T05:42:17;38.43;;;21.60;;
23658;SDS011;12006;42.666;23.326;2024-03-02T05:45:41;33.43;;;18.97;;
23658;SDS011;12006;42.666;23.326;2024-03-02T05:49:05;35.03;;;18.77;;
23658;SDS011;12006;42.666;23.326;2024-03-02T05:52:29;36.40;;;20.17;;
23658;SDS011;12006;42.666;23.326;2024-03-02T05:55:53;36.00;;;20.67;;
23658;SDS011;12006;42.666;23.326;2024-03-02T05:59:17;35.27;;;20.20;;
23658;SDS011;12006;42.666;23.326;2024-03-02T06:02:42;34.17;;;20.53;;
23658;SDS011;12006;42.666;23.326;2024-03-02T06:06:06;34.63;;;19.53;;
23658;SDS011;12006;42.666;23.326;2024-03-02T06:09:30;37.70;;;20.87;;
23658;SDS011;12006;42.666;23.326;2024-03-02T06:12:54;32.97;;;19.63;;
23658;SDS011;12006;42.666;23.326;2024-03-02T06:16:17;35.07;;;18.53;;
23658;SDS011;12006;42.666;23.326;2024-03-02T06:19:41;36.63;;;18.33;;
23658;SDS011;12006;42.666;23.326;2024-03-02T06:23:05;30.63;;;16.83;;
23658;SDS011;12006;42.666;23.326;2024-03-02T06:26:29;31.83;;;16.57;;
23658;SDS011;12006;42.666;23.326;2024-03-02T06:29:53;31.70;;;16.77;;
23658;SDS011;12006;42.666;23.326;2024-03-02T06:33:17;30.97;;;16.80;;
23658;SDS011;12006;42.666;23.326;2024-03-02T06:36:41;33.30;;;16.73;;
23658;SDS011;12006;42.666;23.326;2024-03-02T06:40:05;28.20;;;17.40;;
23658;SDS011;12006;42.666;23.326;2024-03-02T06:43:29;31.73;;;16.53;;
23658;SDS011;12006;42.666;23.326;2024-03-02T06:46:53;26.20;;;15.87;;
23658;SDS011;12006;42.666;23.326;2024-03-02T06:50:17;29.77;;;16.57;;
23658;SDS011;12006;42.666;23.326;2024-03-02T06:53:41;31.13;;;16.33;;
23658;SDS011;12006;42.666;23.326;2024-03-02T06:57:05;35.73;;;18.00;;
23658;SDS011;12006;42.666;23.326;2024-03-02T07:00:29;29.80;;;15.97;;
23658;SDS011;12006;42.666;23.326;2024-03-02T07:03:53;28.10;;;15.20;;
23658;SDS011;12006;42.666;23.326;2024-03-02T07:07:18;27.37;;;15.93;;
23658;SDS011;12006;42.666;23.326;2024-03-02T07:10:41;26.30;;;15.23;;
23658;SDS011;12006;42.666;23.326;2024-03-02T07:14:05;28.40;;;15.33;;
23658;SDS011;12006;42.666;23.326;2024-03-02T07:17:30;26.33;;;14.47;;
23658;SDS011;12006;42.666;23.326;2024-03-02T07:20:55;30.37;;;15.27;;
23658;SDS011;12006;42.666;23.326;2024-03-02T07:24:19;30.83;;;17.83;;
23658;SDS011;12006;42.666;23.326;2024-03-02T07:27:43;30.47;;;16.63;;
23658;SDS011;12006;42.666;23.326;2024-03-02T07:31:07;29.33;;;16.23;;
23658;SDS011;12006;42.666;23.326;2024-03-02T07:34:31;29.63;;;16.23;;
23658;SDS011;12006;42.666;23.326;2024-03-02T07:37:56;33.67;;;16.87;;
23658;SDS011;12006;42.666;23.326;2024-03-02T07:41:20;37.03;;;17.17;;
23658;SDS011;12006;42.666;23.326;2024-03-02T07:44:44;32.17;;;16.83;;
23658;SDS011;12006;42.666;23.326;2024-03-02T07:48:09;32.67;;;17.40;;
23658;SDS011;12006;42.666;23.326;2024-03-02T07:51:33;34.90;;;16.53;;
23658;SDS011;12006;42.666;23.326;2024-03-02T07:54:58;30.20;;;16.40;;
23658;SDS011;12006;42.666;23.326;2024-03-02T07:58:26;28.63;;;15.23;;
23658;SDS011;12006;42.666;23.326;2024-03-02T08:01:50;29.27;;;15.57;;
23658;SDS011;12006;42.666;23.326;2024-03-02T08:05:16;34.13;;;15.57;;
23658;SDS011;12006;42.666;23.326;2024-03-02T08:08:40;31.07;;;16.53;;
23658;SDS011;12006;42.666;23.326;2024-03-02T08:12:04;25.00;;;14.40;;
23658;SDS011;12006;42.666;23.326;2024-03-02T08:15:28;25.07;;;14.83;;
23658;SDS011;12006;42.666;23.326;2024-03-02T08:18:52;32.07;;;15.80;;
23658;SDS011;12006;42.666;23.326;2024-03-02T08:22:16;27.57;;;14.53;;
23658;SDS011;12006;42.666;23.326;2024-03-02T08:25:40;25.80;;;13.53;;
23658;SDS011;12006;42.666;23.326;2024-03-02T08:29:04;25.93;;;15.43;;
23658;SDS011;12006;42.666;23.326;2024-03-02T08:32:31;29.73;;;13.67;;
23658;SDS011;12006;42.666;23.326;2024-03-02T08:35:55;26.03;;;14.93;;
23658;SDS011;12006;42.666;23.326;2024-03-02T08:39:19;27.37;;;13.43;;
23658;SDS011;12006;42.666;23.326;2024-03-02T08:42:43;28.17;;;14.23;;
23658;SDS011;12006;42.666;23.326;2024-03-02T08:46:07;23.77;;;13.50;;
23658;SDS011;12006;42.666;23.326;2024-03-02T08:49:31;25.67;;;14.07;;
23658;SDS011;12006;42.666;23.326;2024-03-02T08:52:55;26.20;;;13.40;;
23658;SDS011;12006;42.666;23.326;2024-03-02T08:56:19;26.57;;;13.90;;
23658;SDS011;12006;42.666;23.326;2024-03-02T08:59:43;24.50;;;12.67;;
23658;SDS011;12006;42.666;23.326;2024-03-02T09:03:07;22.87;;;14.00;;
23658;SDS011;12006;42.666;23.326;2024-03-02T09:06:31;21.27;;;13.23;;
23658;SDS011;12006;42.666;23.326;2024-03-02T09:09:55;20.63;;;12.67;;
23658;SDS011;12006;42.666;23.326;2024-03-02T09:13:19;19.83;;;12.00;;
23658;SDS011;12006;42.666;23.326;2024-03-02T09:16:44;21.63;;;11.37;;
23658;SDS011;12006;42.666;23.326;2024-03-02T09:20:08;22.90;;;12.00;;
23658;SDS011;12006;42.666;23.326;2024-03-02T09:23:32;23.97;;;12.40;;
23658;SDS011;12006;42.666;23.326;2024-03-02T09:26:58;19.10;;;11.63;;
23658;SDS011;12006;42.666;23.326;2024-03-02T09:30:22;16.73;;;10.33;;
23658;SDS011;12006;42.666;23.326;2024-03-02T09:33:46;20.70;;;11.50;;
23658;SDS011;12006;42.666;23.326;2024-03-02T09:37:10;16.80;;;11.27;;
23658;SDS011;12006;42.666;23.326;2024-03-02T09:40:34;20.00;;;10.20;;
23658;SDS011;12006;42.666;23.326;2024-03-02T09:43:58;21.87;;;12.27;;
23658;SDS011;12006;42.666;23.326;2024-03-02T09:47:22;19.73;;;12.10;;
23658;SDS011;12006;42.666;23.326;2024-03-02T09:50:46;23.03;;;12.20;;
23658;SDS011;12006;42.666;23.326;2024-03-02T09:54:13;18.53;;;11.87;;
23658;SDS011;12006;42.666;23.326;2024-03-02T09:57:40;20.83;;;12.80;;
23658;SDS011;12006;42.666;23.326;2024-03-02T10:01:07;23.50;;;13.67;;
23658;SDS011;12006;42.666;23.326;2024-03-02T10:04:32;22.00;;;12.57;;
23658;SDS011;12006;42.666;23.326;2024-03-02T10:08:00;22.77;;;12.70;;
23658;SDS011;12006;42.666;23.326;2024-03-02T10:11:28;19.50;;;12.30;;
23658;SDS011;12006;42.666;23.326;2024-03-02T10:15:02;23.23;;;12.83;;
23658;SDS011;12006;42.666;23.326;2024-03-02T10:18:36;23.67;;;13.07;;
23658;SDS011;12006;42.666;23.326;2024-03-02T10:22:02;19.83;;;12.50;;
23658;SDS011;12006;42.666;23.326;2024-03-02T10:25:45;24.13;;;12.23;;
23658;SDS011;12006;42.666;23.326;2024-03-02T10:29:10;22.13;;;12.87;;
23658;SDS011;12006;42.666;23.326;2024-03-02T10:32:36;22.57;;;12.53;;
23658;SDS011;12006;42.666;23.326;2024-03-02T10:36:00;22.07;;;13.40;;
23658;SDS011;12006;42.666;23.326;2024-03-02T10:39:24;24.70;;;13.17;;
23658;SDS011;12006;42.666;23.326;2024-03-02T10:42:49;20.27;;;13.03;;
23658;SDS011;12006;42.666;23.326;2024-03-02T10:46:13;24.87;;;14.10;;
23658;SDS011;12006;42.666;23.326;2024-03-02T10:49:39;23.50;;;13.10;;
23658;SDS011;12006;42.666;23.326;2024-03-02T10:53:05;23.40;;;13.47;;
23658;SDS011;12006;42.666;23.326;2024-03-02T10:56:47;20.97;;;13.10;;
23658;SDS011;12006;42.666;23.326;2024-03-02T11:00:14;23.77;;;13.07;;
23658;SDS011;12006;42.666;23.326;2024-03-02T11:03:38;22.40;;;12.97;;
23658;SDS011;12006;42.666;23.326;2024-03-02T11:07:08;19.07;;;11.87;;
23658;SDS011;12006;42.666;23.326;2024-03-02T11:10:48;23.47;;;13.10;;
23658;SDS011;12006;42.666;23.326;2024-03-02T11:14:26;22.00;;;12.27;;
23658;SDS011;12006;42.666;23.326;2024-03-02T11:17:52;18.63;;;12.83;;
23658;SDS011;12006;42.666;23.326;2024-03-02T11:21:17;20.73;;;12.70;;
23658;SDS011;12006;42.666;23.326;2024-03-02T11:24:47;23.00;;;12.63;;
23658;SDS011;12006;42.666;23.326;2024-03-02T11:28:12;21.67;;;12.90;;
23658;SDS011;12006;42.666;23.326;2024-03-02T11:31:59;21.47;;;11.87;;
23658;SDS011;12006;42.666;23.326;2024-03-02T11:35:24;18.90;;;13.00;;
23658;SDS011;12006;42.666;23.326;2024-03-02T11:38:48;22.13;;;14.30;;
23658;SDS011;12006;42.666;23.326;2024-03-02T11:42:14;21.30;;;12.73;;
23658;SDS011;12006;42.666;23.326;2024-03-02T11:45:38;21.67;;;13.07;;
23658;SDS011;12006;42.666;23.326;2024-03-02T11:49:05;22.80;;;13.17;;
23658;SDS011;12006;42.666;23.326;2024-03-02T11:52:31;22.57;;;13.33;;
23658;SDS011;12006;42.666;23.326;2024-03-02T11:55:58;24.70;;;11.63;;
23658;SDS011;12006;42.666;23.326;2024-03-02T11:59:23;20.13;;;12.30;;
23658;SDS011;12006;42.666;23.326;2024-03-02T12:02:59;21.10;;;14.17;;
23658;SDS011;12006;42.666;23.326;2024-03-02T12:06:23;21.40;;;12.77;;
23658;SDS011;12006;42.666;23.326;2024-03-02T12:09:48;22.30;;;13.13;;
23658;SDS011;12006;42.666;23.326;2024-03-02T12:13:23;21.10;;;12.47;;
23658;SDS011;12006;42.666;23.326;2024-03-02T12:16:47;22.87;;;13.47;;
23658;SDS011;12006;42.666;23.326;2024-03-02T12:20:11;21.73;;;12.27;;
23658;SDS011;12006;42.666;23.326;2024-03-02T12:23:35;21.83;;;13.17;;
23658;SDS011;12006;42.666;23.326;2024-03-02T12:26:59;23.90;;;13.40;;
23658;SDS011;12006;42.666;23.326;2024-03-02T12:30:26;19.93;;;13.10;;
23658;SDS011;12006;42.666;23.326;2024-03-02T12:33:50;20.27;;;12.63;;
23658;SDS011;12006;42.666;23.326;2024-03-02T12:37:16;18.70;;;11.53;;
23658;SDS011;12006;42.666;23.326;2024-03-02T12:40:39;17.60;;;11.27;;
23658;SDS011;12006;42.666;23.326;2024-03-02T12:44:06;22.27;;;12.33;;
23658;SDS011;12006;42.666;23.326;2024-03-02T12:47:32;18.60;;;12.07;;
23658;SDS011;12006;42.666;23.326;2024-03-02T12:50:56;20.23;;;11.20;;
23658;SDS011;12006;42.666;23.326;2024-03-02T12:54:21;18.93;;;11.43;;
23658;SDS011;12006;42.666;23.326;2024-03-02T12:57:47;16.97;;;11.17;;
23658;SDS011;12006;42.666;23.326;2024-03-02T13:01:11;21.33;;;11.43;;
23658;SDS011;12006;42.666;23.326;2024-03-02T13:04:41;17.57;;;10.40;;
23658;SDS011;12006;42.666;23.326;2024-03-02T13:08:08;14.97;;;9.80;;
23658;SDS011;12006;42.666;23.326;2024-03-02T13:11:39;16.83;;;11.20;;
23658;SDS011;12006;42.666;23.326;2024-03-02T13:15:03;20.47;;;11.53;;
23658;SDS011;12006;42.666;23.326;2024-03-02T13:18:31;15.93;;;11.33;;
23658;SDS011;12006;42.666;23.326;2024-03-02T13:21:56;16.67;;;10.83;;
23658;SDS011;12006;42.666;23.326;2024-03-02T13:25:20;18.07;;;10.97;;
23658;SDS011;12006;42.666;23.326;2024-03-02T13:28:43;18.07;;;10.03;;
23658;SDS011;12006;42.666;23.326;2024-03-02T13:32:07;15.63;;;10.37;;
23658;SDS011;12006;42.666;23.326;2024-03-02T13:35:31;16.23;;;11.10;;
23658;SDS011;12006;42.666;23.326;2024-03-02T13:38:55;14.77;;;10.33;;
23658;SDS011;12006;42.666;23.326;2024-03-02T13:42:19;16.57;;;10.93;;
23658;SDS011;12006;42.666;23.326;2024-03-02T13:45:46;18.47;;;10.73;;
23658;SDS011;12006;42.666;23.326;2024-03-02T13:49:10;15.97;;;10.33;;
23658;SDS011;12006;42.666;23.326;2024-03-02T13:52:35;17.57;;;10.50;;
23658;SDS011;12006;42.666;23.326;2024-03-02T13:55:59;14.77;;;10.73;;
23658;SDS011;12006;42.666;23.326;2024-03-02T13:59:23;14.40;;;10.63;;
23658;SDS011;12006;42.666;23.326;2024-03-02T14:02:47;14.17;;;10.83;;
23658;SDS011;12006;42.666;23.326;2024-03-02T14:06:12;18.77;;;11.97;;
23658;SDS011;12006;42.666;23.326;2024-03-02T14:09:37;17.77;;;11.40;;
23658;SDS011;12006;42.666;23.326;2024-03-02T14:13:00;16.30;;;11.83;;
23658;SDS011;12006;42.666;23.326;2024-03-02T14:16:24;16.83;;;11.50;;
23658;SDS011;12006;42.666;23.326;2024-03-02T14:19:51;16.97;;;11.43;;
23658;SDS011;12006;42.666;23.326;2024-03-02T14:23:18;18.80;;;12.33;;
23658;SDS011;12006;42.666;23.326;2024-03-02T14:26:41;16.90;;;11.93;;
23658;SDS011;12006;42.666;23.326;2024-03-02T14:30:05;17.30;;;12.37;;
23658;SDS011;12006;42.666;23.326;2024-03-02T14:33:30;19.37;;;12.90;;
23658;SDS011;12006;42.666;23.326;2024-03-02T14:36:53;18.90;;;12.40;;
23658;SDS011;12006;42.666;23.326;2024-03-02T14:40:18;19.60;;;12.80;;
23658;SDS011;12006;42.666;23.326;2024-03-02T14:43:41;17.73;;;11.30;;
23658;SDS011;12006;42.666;23.326;2024-03-02T14:47:05;15.97;;;11.80;;
23658;SDS011;12006;42.666;23.326;2024-03-02T14:50:30;23.20;;;14.07;;
23658;SDS011;12006;42.666;23.326;2024-03-02T14:53:55;17.30;;;12.17;;
23658;SDS011;12006;42.666;23.326;2024-03-02T14:57:19;17.10;;;11.00;;
23658;SDS011;12006;42.666;23.326;2024-03-02T15:00:42;17.27;;;11.93;;
23658;SDS011;12006;42.666;23.326;2024-03-02T15:04:06;17.10;;;11.83;;
23658;SDS011;12006;42.666;23.326;2024-03-02T15:07:31;17.10;;;11.80;;
23658;SDS011;12006;42.666;23.326;2024-03-02T15:10:55;19.13;;;12.37;;
23658;SDS011;12006;42.666;23.326;2024-03-02T15:14:19;20.03;;;12.23;;
23658;SDS011;12006;42.666;23.326;2024-03-02T15:17:43;19.37;;;12.07;;
23658;SDS011;12006;42.666;23.326;2024-03-02T15:21:06;21.90;;;13.07;;
23658;SDS011;12006;42.666;23.326;2024-03-02T15:24:30;21.43;;;13.63;;
23658;SDS011;12006;42.666;23.326;2024-03-02T15:27:54;22.67;;;15.00;;
23658;SDS011;12006;42.666;23.326;2024-03-02T15:31:20;23.17;;;14.47;;
23658;SDS011;12006;42.666;23.326;2024-03-02T15:34:44;20.77;;;13.83;;
23658;SDS011;12006;42.666;23.326;2024-03-02T15:38:08;22.40;;;14.20;;
23658;SDS011;12006;42.666;23.326;2024-03-02T15:41:33;23.07;;;14.63;;
23658;SDS011;12006;42.666;23.326;2024-03-02T15:44:57;22.23;;;15.43;;
23658;SDS011;12006;42.666;23.326;2024-03-02T15:48:22;21.10;;;13.87;;
23658;SDS011;12006;42.666;23.326;2024-03-02T15:51:45;23.43;;;14.53;;
23658;SDS011;12006;42.666;23.326;2024-03-02T15:55:11;24.10;;;15.30;;
23658;SDS011;12006;42.666;23.326;2024-03-02T15:58:35;22.33;;;15.67;;
23658;SDS011;12006;42.666;23.326;2024-03-02T16:01:59;23.87;;;15.43;;
23658;SDS011;12006;42.666;23.326;2024-03-02T16:05:23;22.87;;;14.53;;
23658;SDS011;12006;42.666;23.326;2024-03-02T16:08:47;22.90;;;14.30;;
23658;SDS011;12006;42.666;23.326;2024-03-02T16:12:11;20.37;;;14.20;;
23658;SDS011;12006;42.666;23.326;2024-03-02T16:15:35;23.30;;;13.93;;
23658;SDS011;12006;42.666;23.326;2024-03-02T16:18:59;20.73;;;13.63;;
23658;SDS011;12006;42.666;23.326;2024-03-02T16:22:23;21.27;;;14.63;;
23658;SDS011;12006;42.666;23.326;2024-03-02T16:25:47;26.40;;;16.30;;
23658;SDS011;12006;42.666;23.326;2024-03-02T16:29:11;20.77;;;14.40;;
23658;SDS011;12006;42.666;23.326;2024-03-02T16:32:35;23.83;;;15.00;;
23658;SDS011;12006;42.666;23.326;2024-03-02T16:35:59;21.83;;;14.47;;
23658;SDS011;12006;42.666;23.326;2024-03-02T16:39:23;24.00;;;15.27;;
23658;SDS011;12006;42.666;23.326;2024-03-02T16:42:47;23.23;;;15.47;;
23658;SDS011;12006;42.666;23.326;2024-03-02T16:46:11;27.43;;;15.00;;
23658;SDS011;12006;42.666;23.326;2024-03-02T16:49:35;22.53;;;15.00;;
23658;SDS011;12006;42.666;23.326;2024-03-02T16:52:59;23.90;;;15.47;;
23658;SDS011;12006;42.666;23.326;2024-03-02T16:56:24;23.87;;;15.50;;
23658;SDS011;12006;42.666;23.326;2024-03-02T16:59:48;26.80;;;15.03;;
23658;SDS011;12006;42.666;23.326;2024-03-02T17:03:13;24.23;;;15.13;;
23658;SDS011;12006;42.666;23.326;2024-03-02T17:06:37;23.03;;;14.37;;
23658;SDS011;12006;42.666;23.326;2024-03-02T17:10:01;25.27;;;15.23;;
23658;SDS011;12006;42.666;23.326;2024-03-02T17:13:25;21.67;;;14.50;;
23658;SDS011;12006;42.666;23.326;2024-03-02T17:16:49;24.60;;;15.67;;
23658;SDS011;12006;42.666;23.326;2024-03-02T17:20:13;27.73;;;16.50;;
23658;SDS011;12006;42.666;23.326;2024-03-02T17:23:37;31.23;;;16.20;;
23658;SDS011;12006;42.666;23.326;2024-03-02T17:27:01;23.23;;;15.70;;
23658;SDS011;12006;42.666;23.326;2024-03-02T17:30:43;26.67;;;16.23;;
23658;SDS011;12006;42.666;23.326;2024-03-02T17:34:07;27.80;;;17.30;;
23658;SDS011;12006;42.666;23.326;2024-03-02T17:37:31;25.83;;;16.10;;
23658;SDS011;12006;42.666;23.326;2024-03-02T17:40:55;25.50;;;16.93;;
23658;SDS011;12006;42.666;23.326;2024-03-02T17:44:19;25.60;;;16.93;;
23658;SDS011;12006;42.666;23.326;2024-03-02T17:47:43;30.10;;;16.93;;
23658;SDS011;12006;42.666;23.326;2024-03-02T17:51:07;23.87;;;16.57;;
23658;SDS011;12006;42.666;23.326;2024-03-02T17:54:31;28.57;;;17.00;;
23658;SDS011;12006;42.666;23.326;2024-03-02T17:57:55;25.43;;;15.87;;
23658;SDS011;12006;42.666;23.326;2024-03-02T18:01:19;32.90;;;17.77;;
23658;SDS011;12006;42.666;23.326;2024-03-02T18:04:43;33.70;;;18.13;;
23658;SDS011;12006;42.666;23.326;2024-03-02T18:08:07;32.20;;;20.27;;
23658;SDS011;12006;42.666;23.326;2024-03-02T18:11:32;29.30;;;17.27;;
23658;SDS011;12006;42.666;23.326;2024-03-02T18:14:56;28.87;;;16.57;;
23658;SDS011;12006;42.666;23.326;2024-03-02T18:18:21;28.33;;;18.00;;
23658;SDS011;12006;42.666;23.326;2024-03-02T18:21:44;30.10;;;20.60;;
23658;SDS011;12006;42.666;23.326;2024-03-02T18:25:08;31.37;;;21.03;;
23658;SDS011;12006;42.666;23.326;2024-03-02T18:28:32;32.60;;;21.03;;
23658;SDS011;12006;42.666;23.326;2024-03-02T18:31:56;30.73;;;20.77;;
23658;SDS011;12006;42.666;23.326;2024-03-02T18:35:20;34.00;;;19.90;;
23658;SDS011;12006;42.666;23.326;2024-03-02T18:38:44;33.60;;;20.80;;
23658;SDS011;12006;42.666;23.326;2024-03-02T18:42:08;33.33;;;20.00;;
23658;SDS011;12006;42.666;23.326;2024-03-02T18:45:32;33.00;;;20.33;;
23658;SDS011;12006;42.666;23.326;2024-03-02T18:48:57;32.43;;;21.43;;
23658;SDS011;12006;42.666;23.326;2024-03-02T18:52:22;31.50;;;19.23;;
23658;SDS011;12006;42.666;23.326;2024-03-02T18:55:46;31.70;;;20.23;;
23658;SDS011;12006;42.666;23.326;2024-03-02T18:59:10;32.77;;;19.17;;
23658;SDS011;12006;42.666;23.326;2024-03-02T19:02:34;34.03;;;19.70;;
23658;SDS011;12006;42.666;23.326;2024-03-02T19:05:59;37.90;;;20.07;;
23658;SDS011;12006;42.666;23.326;2024-03-02T19:09:23;33.60;;;20.53;;
23658;SDS011;12006;42.666;23.326;2024-03-02T19:12:47;33.23;;;20.37;;
23658;SDS011;12006;42.666;23.326;2024-03-02T19:16:11;34.13;;;20.33;;
23658;SDS011;12006;42.666;23.326;2024-03-02T19:19:35;33.83;;;19.80;;
23658;SDS011;12006;42.666;23.326;2024-03-02T19:22:59;29.90;;;19.73;;
23658;SDS011;12006;42.666;23.326;2024-03-02T19:26:23;31.70;;;18.93;;
23658;SDS011;12006;42.666;23.326;2024-03-02T19:29:47;33.93;;;20.37;;
23658;SDS011;12006;42.666;23.326;2024-03-02T19:33:11;33.57;;;19.50;;
23658;SDS011;12006;42.666;23.326;2024-03-02T19:36:35;31.13;;;19.17;;
23658;SDS011;12006;42.666;23.326;2024-03-02T19:40:00;31.50;;;21.20;;